createdAt,value
2023-03-05T00:00:08.618Z,13.13
2023-03-05T00:00:35.011Z,13.04
2023-03-05T00:00:56.646Z,13.06
2023-03-05T00:01:20.205Z,13.09
2023-03-05T00:01:42.955Z,13.07
2023-03-05T00:02:06.830Z,13.07
2023-03-05T00:02:28.605Z,13.04
2023-03-05T00:02:50.285Z,13.04
2023-03-05T00:03:13.101Z,13.03
2023-03-05T00:03:34.967Z,13.06
2023-03-05T00:03:57.000Z,13.07
2023-03-05T00:04:18.687Z,13.05
2023-03-05T00:04:41.295Z,13.07
2023-03-05T00:05:02.866Z,13.07
2023-03-05T00:05:24.484Z,13.06
2023-03-05T00:05:46.050Z,13.07
2023-03-05T00:06:08.221Z,13.09
2023-03-05T00:06:33.889Z,13.06
2023-03-05T00:06:55.725Z,13.01
2023-03-05T00:07:17.325Z,13.04
2023-03-05T00:07:38.927Z,13.01
2023-03-05T00:08:00.626Z,13.01
2023-03-05T00:08:23.148Z,13.04
2023-03-05T00:08:44.934Z,13.01
2023-03-05T00:09:06.629Z,13.03
2023-03-05T00:09:28.212Z,13.05
2023-03-05T00:09:50.754Z,13.07
2023-03-05T00:10:12.529Z,13.01
2023-03-05T00:10:34.118Z,13.06
2023-03-05T00:10:57.133Z,13.08
2023-03-05T00:11:20.594Z,13.06
2023-03-05T00:11:42.304Z,13.06
2023-03-05T00:12:04.585Z,13.08
2023-03-05T00:12:26.255Z,13.09
2023-03-05T00:12:48.856Z,13.00
2023-03-05T00:13:10.513Z,13.01
2023-03-05T00:13:33.043Z,13.04
2023-03-05T00:13:54.959Z,13.05
2023-03-05T00:14:17.598Z,13.06
2023-03-05T00:14:39.211Z,13.03
2023-03-05T00:15:00.898Z,12.97
2023-03-05T00:15:22.530Z,13.03
2023-03-05T00:15:44.130Z,12.98
2023-03-05T00:16:09.313Z,13.04
2023-03-05T00:16:31.427Z,13.05
2023-03-05T00:16:53.050Z,13.06
2023-03-05T00:17:14.698Z,13.06
2023-03-05T00:17:37.278Z,13.06
2023-03-05T00:17:59.295Z,13.07
2023-03-05T00:18:21.649Z,13.06
2023-03-05T00:18:43.809Z,13.07
2023-03-05T00:19:06.810Z,13.09
2023-03-05T00:19:28.422Z,13.11
2023-03-05T00:19:50.006Z,13.06
2023-03-05T00:20:13.301Z,13.07
2023-03-05T00:20:35.266Z,13.07
2023-03-05T00:20:56.908Z,13.10
2023-03-05T00:21:20.679Z,12.97
2023-03-05T00:21:43.865Z,13.02
2023-03-05T00:22:06.580Z,13.06
2023-03-05T00:22:28.215Z,12.97
2023-03-05T00:22:50.011Z,12.89
2023-03-05T00:23:11.734Z,12.98
2023-03-05T00:23:34.234Z,12.92
2023-03-05T00:23:57.803Z,12.99
2023-03-05T00:24:19.392Z,12.95
2023-03-05T00:24:42.045Z,12.97
2023-03-05T00:25:04.653Z,12.97
2023-03-05T00:25:26.234Z,12.98
2023-03-05T00:25:48.192Z,12.98
2023-03-05T00:26:09.994Z,12.98
2023-03-05T00:26:35.808Z,12.97
2023-03-05T00:26:57.414Z,12.98
2023-03-05T00:27:19.028Z,12.98
2023-03-05T00:27:40.681Z,12.96
2023-03-05T00:28:03.408Z,12.95
2023-03-05T00:28:25.059Z,12.89
2023-03-05T00:28:49.786Z,12.91
2023-03-05T00:29:15.513Z,12.94
2023-03-05T00:29:39.272Z,12.92
2023-03-05T00:30:00.895Z,12.94
2023-03-05T00:30:22.564Z,12.91
2023-03-05T00:30:45.126Z,12.95
2023-03-05T00:31:06.769Z,12.95
2023-03-05T00:31:31.334Z,12.93
2023-03-05T00:31:53.043Z,12.90
2023-03-05T00:32:15.726Z,12.90
2023-03-05T00:32:37.335Z,12.89
2023-03-05T00:32:58.994Z,12.86
2023-03-05T00:33:20.622Z,12.86
2023-03-05T00:33:42.325Z,12.89
2023-03-05T00:34:08.010Z,12.83
2023-03-05T00:34:29.696Z,12.90
2023-03-05T00:34:51.314Z,12.89
2023-03-05T00:35:13.179Z,12.93
2023-03-05T00:35:39.471Z,12.94
2023-03-05T00:36:07.040Z,12.94
2023-03-05T00:36:29.626Z,12.97
2023-03-05T00:36:52.901Z,13.01
2023-03-05T00:37:14.689Z,13.02
2023-03-05T00:37:37.641Z,12.99
2023-03-05T00:37:59.241Z,13.01
2023-03-05T00:38:20.878Z,12.99
2023-03-05T00:38:42.469Z,12.98
2023-03-05T00:39:04.302Z,12.97
2023-03-05T00:39:27.909Z,12.94
2023-03-05T00:39:49.501Z,12.87
2023-03-05T00:40:12.596Z,12.85
2023-03-05T00:40:38.075Z,12.87
2023-03-05T00:40:59.750Z,12.86
2023-03-05T00:41:22.263Z,12.83
2023-03-05T00:41:45.503Z,12.84
2023-03-05T00:42:07.799Z,12.86
2023-03-05T00:42:29.833Z,12.82
2023-03-05T00:42:51.584Z,12.85
2023-03-05T00:43:14.126Z,12.83
2023-03-05T00:43:35.786Z,12.82
2023-03-05T00:43:57.681Z,12.80
2023-03-05T00:44:19.590Z,12.81
2023-03-05T00:44:42.256Z,12.84
2023-03-05T00:45:04.520Z,12.88
2023-03-05T00:45:26.233Z,12.88
2023-03-05T00:45:47.819Z,12.89
2023-03-05T00:46:09.678Z,12.89
2023-03-05T00:46:32.387Z,12.88
2023-03-05T00:46:54.130Z,12.88
2023-03-05T00:47:18.245Z,12.91
2023-03-05T00:47:39.901Z,12.94
2023-03-05T00:48:02.558Z,12.86
2023-03-05T00:48:25.526Z,12.88
2023-03-05T00:48:47.316Z,12.87
2023-03-05T00:49:10.016Z,12.88
2023-03-05T00:49:31.596Z,12.88
2023-03-05T00:49:53.190Z,12.88
2023-03-05T00:50:14.858Z,12.86
2023-03-05T00:50:37.366Z,12.86
2023-03-05T00:50:59.103Z,12.88
2023-03-05T00:51:20.786Z,12.89
2023-03-05T00:51:42.448Z,12.85
2023-03-05T00:52:06.412Z,12.84
2023-03-05T00:52:28.055Z,12.89
2023-03-05T00:52:49.657Z,12.89
2023-03-05T00:53:11.390Z,12.87
2023-03-05T00:53:33.086Z,12.81
2023-03-05T00:53:56.187Z,12.81
2023-03-05T00:54:17.939Z,12.85
2023-03-05T00:54:39.540Z,12.86
2023-03-05T00:55:01.161Z,12.86
2023-03-05T00:55:23.705Z,12.85
2023-03-05T00:55:45.484Z,12.87
2023-03-05T00:56:07.470Z,12.84
2023-03-05T00:56:29.169Z,12.82
2023-03-05T00:56:51.817Z,12.79
2023-03-05T00:57:13.406Z,12.81
2023-03-05T00:57:34.987Z,12.81
2023-03-05T00:57:56.547Z,12.81
2023-03-05T00:58:19.170Z,12.78
2023-03-05T00:58:40.881Z,12.78
2023-03-05T00:59:02.562Z,12.78
2023-03-05T00:59:25.171Z,12.77
2023-03-05T00:59:47.005Z,12.76
2023-03-05T01:00:10.765Z,12.76
2023-03-05T01:00:32.397Z,12.77
2023-03-05T01:00:57.898Z,12.77
2023-03-05T01:01:20.579Z,12.80
2023-03-05T01:01:42.241Z,12.80
2023-03-05T01:02:03.957Z,12.81
2023-03-05T01:02:26.030Z,12.81
2023-03-05T01:02:47.646Z,12.82
2023-03-05T01:03:10.579Z,12.82
2023-03-05T01:03:34.768Z,12.80
2023-03-05T01:03:57.419Z,12.83
2023-03-05T01:04:19.159Z,12.70
2023-03-05T01:04:40.820Z,12.83
2023-03-05T01:05:03.536Z,12.84
2023-03-05T01:05:25.263Z,12.83
2023-03-05T01:05:47.513Z,12.81
2023-03-05T01:06:11.556Z,12.71
2023-03-05T01:06:34.149Z,12.82
2023-03-05T01:06:56.204Z,12.85
2023-03-05T01:07:19.214Z,12.86
2023-03-05T01:07:41.067Z,12.87
2023-03-05T01:08:04.205Z,12.80
2023-03-05T01:08:26.183Z,12.84
2023-03-05T01:08:48.210Z,12.86
2023-03-05T01:09:09.917Z,12.85
2023-03-05T01:09:32.545Z,12.84
2023-03-05T01:09:54.349Z,12.84
2023-03-05T01:10:16.104Z,12.84
2023-03-05T01:10:37.883Z,12.84
2023-03-05T01:11:00.571Z,12.75
2023-03-05T01:11:22.274Z,12.84
2023-03-05T01:11:43.925Z,12.82
2023-03-05T01:12:06.154Z,12.81
2023-03-05T01:12:27.745Z,12.79
2023-03-05T01:12:50.959Z,12.77
2023-03-05T01:13:12.579Z,12.77
2023-03-05T01:13:34.306Z,12.77
2023-03-05T01:13:56.012Z,12.77
2023-03-05T01:14:19.305Z,12.76
2023-03-05T01:14:40.966Z,12.77
2023-03-05T01:15:02.777Z,12.75
2023-03-05T01:15:25.368Z,12.75
2023-03-05T01:15:47.722Z,12.77
2023-03-05T01:16:10.516Z,12.70
2023-03-05T01:16:32.252Z,12.76
2023-03-05T01:16:54.331Z,12.75
2023-03-05T01:17:15.896Z,12.76
2023-03-05T01:17:37.571Z,12.78
2023-03-05T01:18:00.151Z,12.76
2023-03-05T01:18:21.740Z,12.75
2023-03-05T01:18:43.397Z,12.76
2023-03-05T01:19:06.002Z,12.80
2023-03-05T01:19:27.851Z,12.78
2023-03-05T01:19:49.564Z,12.79
2023-03-05T01:20:13.345Z,12.73
2023-03-05T01:20:36.106Z,12.82
2023-03-05T01:20:57.685Z,12.81
2023-03-05T01:21:19.381Z,12.76
2023-03-05T01:21:41.842Z,12.69
2023-03-05T01:22:04.541Z,12.73
2023-03-05T01:22:27.552Z,12.75
2023-03-05T01:22:49.542Z,12.79
2023-03-05T01:23:11.542Z,12.78
2023-03-05T01:23:35.671Z,12.80
2023-03-05T01:23:58.799Z,12.78
2023-03-05T01:24:20.468Z,12.78
2023-03-05T01:24:42.041Z,12.80
2023-03-05T01:25:04.016Z,12.78
2023-03-05T01:25:25.907Z,12.80
2023-03-05T01:25:55.338Z,12.80
2023-03-05T01:26:17.206Z,12.75
2023-03-05T01:26:39.410Z,12.81
2023-03-05T01:27:01.127Z,12.80
2023-03-05T01:27:24.156Z,12.82
2023-03-05T01:27:46.186Z,12.81
2023-03-05T01:28:08.060Z,12.83
2023-03-05T01:28:29.712Z,12.82
2023-03-05T01:28:52.325Z,12.82
2023-03-05T01:29:13.920Z,12.84
2023-03-05T01:29:37.127Z,12.82
2023-03-05T01:29:58.727Z,12.83
2023-03-05T01:30:20.446Z,12.84
2023-03-05T01:30:43.074Z,12.81
2023-03-05T01:31:07.929Z,12.82
2023-03-05T01:31:29.838Z,12.84
2023-03-05T01:31:51.459Z,12.85
2023-03-05T01:32:14.484Z,12.85
2023-03-05T01:32:36.624Z,12.85
2023-03-05T01:32:58.342Z,12.84
2023-03-05T01:33:20.411Z,12.84
2023-03-05T01:33:43.065Z,12.83
2023-03-05T01:34:04.809Z,12.81
2023-03-05T01:34:26.390Z,12.82
2023-03-05T01:34:48.030Z,12.81
2023-03-05T01:35:16.649Z,12.81
2023-03-05T01:35:39.334Z,12.75
2023-03-05T01:36:00.978Z,12.84
2023-03-05T01:36:24.987Z,12.84
2023-03-05T01:36:46.711Z,12.82
2023-03-05T01:37:09.494Z,12.84
2023-03-05T01:37:32.696Z,12.83
2023-03-05T01:37:54.337Z,12.67
2023-03-05T01:38:16.664Z,12.84
2023-03-05T01:39:08.450Z,12.81
2023-03-05T01:39:30.069Z,12.80
2023-03-05T01:39:51.845Z,12.79
2023-03-05T01:40:17.059Z,12.80
2023-03-05T01:40:40.094Z,12.78
2023-03-05T01:41:01.883Z,12.77
2023-03-05T01:41:23.462Z,12.77
2023-03-05T01:41:46.009Z,12.75
2023-03-05T01:42:07.804Z,12.74
2023-03-05T01:42:29.401Z,12.71
2023-03-05T01:42:58.062Z,12.72
2023-03-05T01:43:25.406Z,12.70
2023-03-05T01:43:47.677Z,12.72
2023-03-05T01:44:21.410Z,12.71
2023-03-05T01:45:03.165Z,12.73
2023-03-05T01:45:24.903Z,12.73
2023-03-05T01:46:28.181Z,12.72
2023-03-05T01:46:50.856Z,12.63
2023-03-05T01:47:12.456Z,12.61
2023-03-05T01:47:34.044Z,12.55
2023-03-05T01:47:55.683Z,12.54
2023-03-05T01:48:18.330Z,12.56
2023-03-05T01:48:42.089Z,12.57
2023-03-05T01:49:14.556Z,12.55
2023-03-05T01:49:41.012Z,12.58
2023-03-05T01:50:04.444Z,12.56
2023-03-05T01:50:27.672Z,12.55
2023-03-05T01:50:49.394Z,12.48
2023-03-05T01:51:11.460Z,12.51
2023-03-05T01:51:38.217Z,12.51
2023-03-05T01:52:06.485Z,12.51
2023-03-05T01:52:32.154Z,12.54
2023-03-05T01:52:59.049Z,12.56
2023-03-05T01:53:20.649Z,12.54
2023-03-05T01:53:42.635Z,12.56
2023-03-05T01:54:08.051Z,12.54
2023-03-05T01:54:33.663Z,12.54
2023-03-05T01:54:59.644Z,12.55
2023-03-05T01:55:24.472Z,12.53
2023-03-05T01:55:46.435Z,12.55
2023-03-05T01:56:09.226Z,12.54
2023-03-05T01:56:31.023Z,12.46
2023-03-05T01:56:55.041Z,12.49
2023-03-05T01:57:20.562Z,12.47
2023-03-05T01:57:44.891Z,12.50
2023-03-05T01:58:10.126Z,12.52
2023-03-05T01:58:32.043Z,12.54
2023-03-05T01:59:03.045Z,12.53
2023-03-05T01:59:26.822Z,12.53
2023-03-05T01:59:51.125Z,12.44
2023-03-05T02:00:17.751Z,12.55
2023-03-05T02:00:43.653Z,12.56
2023-03-05T02:01:05.640Z,12.59
2023-03-05T02:01:27.432Z,12.59
2023-03-05T02:01:52.854Z,12.59
2023-03-05T02:02:14.438Z,12.61
2023-03-05T02:02:36.182Z,12.61
2023-03-05T02:03:01.751Z,12.58
2023-03-05T02:03:25.447Z,12.63
2023-03-05T02:03:49.376Z,12.61
2023-03-05T02:04:16.264Z,12.63
2023-03-05T02:04:43.115Z,12.61
2023-03-05T02:05:09.281Z,12.59
2023-03-05T02:05:33.215Z,12.51
2023-03-05T02:05:55.254Z,12.60
2023-03-05T02:06:17.238Z,12.63
2023-03-05T02:06:41.065Z,12.64
2023-03-05T02:07:04.358Z,12.66
2023-03-05T02:07:26.486Z,12.66
2023-03-05T02:07:48.320Z,12.69
2023-03-05T02:08:14.270Z,12.69
2023-03-05T02:08:36.910Z,12.63
2023-03-05T02:08:59.991Z,12.64
2023-03-05T02:09:23.493Z,12.65
2023-03-05T02:09:45.285Z,12.64
2023-03-05T02:10:16.962Z,12.61
2023-03-05T02:10:40.192Z,12.64
2023-03-05T02:11:02.315Z,12.64
2023-03-05T02:11:24.237Z,12.61
2023-03-05T02:11:47.819Z,12.58
2023-03-05T02:12:11.595Z,12.61
2023-03-05T02:12:33.180Z,12.63
2023-03-05T02:12:58.613Z,12.62
2023-03-05T02:13:23.756Z,12.64
2023-03-05T02:13:45.786Z,12.62
2023-03-05T02:14:10.272Z,12.64
2023-03-05T02:14:32.835Z,12.66
2023-03-05T02:14:59.286Z,12.66
2023-03-05T02:15:21.093Z,12.62
2023-03-05T02:15:42.995Z,12.63
2023-03-05T02:16:05.345Z,12.65
2023-03-05T02:16:35.729Z,12.65
2023-03-05T02:16:58.076Z,12.67
2023-03-05T02:17:19.716Z,12.65
2023-03-05T02:17:41.274Z,12.65
2023-03-05T02:18:03.929Z,12.67
2023-03-05T02:18:25.876Z,12.69
2023-03-05T02:18:47.556Z,12.67
2023-03-05T02:19:11.477Z,12.59
2023-03-05T02:19:48.234Z,12.58
2023-03-05T02:20:13.340Z,12.55
2023-03-05T02:20:45.142Z,12.54
2023-03-05T02:21:09.642Z,12.48
2023-03-05T02:21:37.507Z,12.51
2023-03-05T02:21:59.143Z,12.54
2023-03-05T02:22:22.862Z,12.54
2023-03-05T02:22:45.480Z,12.53
2023-03-05T02:23:07.085Z,12.53
2023-03-05T02:23:32.729Z,12.55
2023-03-05T02:23:54.469Z,12.55
2023-03-05T02:24:20.633Z,12.56
2023-03-05T02:24:42.226Z,12.53
2023-03-05T02:25:13.728Z,12.54
2023-03-05T02:25:35.444Z,12.53
2023-03-05T02:25:58.270Z,12.54
2023-03-05T02:26:19.943Z,12.52
2023-03-05T02:26:43.078Z,12.53
2023-03-05T02:27:05.752Z,12.53
2023-03-05T02:27:34.967Z,12.47
2023-03-05T02:28:01.799Z,12.47
2023-03-05T02:28:28.226Z,12.41
2023-03-05T02:28:54.425Z,12.39
2023-03-05T02:29:20.861Z,12.32
2023-03-05T02:29:45.398Z,12.34
2023-03-05T02:30:08.600Z,12.32
2023-03-05T02:30:31.278Z,12.39
2023-03-05T02:30:53.881Z,12.38
2023-03-05T02:31:18.458Z,12.40
2023-03-05T02:31:40.233Z,12.41
2023-03-05T02:32:02.695Z,12.45
2023-03-05T02:32:25.307Z,12.43
2023-03-05T02:32:47.195Z,12.45
2023-03-05T02:33:09.777Z,12.47
2023-03-05T02:33:31.504Z,12.45
2023-03-05T02:33:56.220Z,12.51
2023-03-05T02:34:18.954Z,12.49
2023-03-05T02:34:40.993Z,12.51
2023-03-05T02:35:04.313Z,12.52
2023-03-05T02:35:26.161Z,12.54
2023-03-05T02:35:48.109Z,12.53
2023-03-05T02:36:12.055Z,12.53
2023-03-05T02:36:33.836Z,12.54
2023-03-05T02:36:56.810Z,12.53
2023-03-05T02:37:19.755Z,12.53
2023-03-05T02:37:41.741Z,12.52
2023-03-05T02:38:03.579Z,12.52
2023-03-05T02:38:26.200Z,12.52
2023-03-05T02:38:48.299Z,12.50
2023-03-05T02:39:10.233Z,12.51
2023-03-05T02:39:32.174Z,12.53
2023-03-05T02:39:53.978Z,12.52
2023-03-05T02:40:17.712Z,12.54
2023-03-05T02:40:39.704Z,12.53
2023-03-05T02:41:01.408Z,12.51
2023-03-05T02:41:24.043Z,12.51
2023-03-05T02:41:45.831Z,12.50
2023-03-05T02:42:08.516Z,12.49
2023-03-05T02:42:33.505Z,12.50
2023-03-05T02:42:55.750Z,12.48
2023-03-05T02:43:17.386Z,12.50
2023-03-05T02:43:40.099Z,12.48
2023-03-05T02:44:01.956Z,12.47
2023-03-05T02:44:23.661Z,12.48
2023-03-05T02:44:45.313Z,12.49
2023-03-05T02:45:08.301Z,12.49
2023-03-05T02:45:30.969Z,12.47
2023-03-05T02:45:52.774Z,12.50
2023-03-05T02:46:15.699Z,12.52
2023-03-05T02:46:37.663Z,12.51
2023-03-05T02:47:01.193Z,12.51
2023-03-05T02:47:22.956Z,12.50
2023-03-05T02:47:44.671Z,12.51
2023-03-05T02:48:06.906Z,12.47
2023-03-05T02:48:29.692Z,12.45
2023-03-05T02:48:51.428Z,12.29
2023-03-05T02:49:13.100Z,12.44
2023-03-05T02:49:34.766Z,12.38
2023-03-05T02:49:57.567Z,12.45
2023-03-05T02:50:20.142Z,12.48
2023-03-05T02:50:42.239Z,12.49
2023-03-05T02:51:06.801Z,12.50
2023-03-05T02:51:30.776Z,12.46
2023-03-05T02:51:53.407Z,12.47
2023-03-05T02:52:15.039Z,12.48
2023-03-05T02:52:36.759Z,12.47
2023-03-05T02:53:00.429Z,12.49
2023-03-05T02:53:24.034Z,12.49
2023-03-05T02:53:46.218Z,12.48
2023-03-05T02:54:08.243Z,12.51
2023-03-05T02:54:31.233Z,12.48
2023-03-05T02:54:53.005Z,12.50
2023-03-05T02:55:14.805Z,12.37
2023-03-05T02:55:37.058Z,12.45
2023-03-05T02:56:00.304Z,12.47
2023-03-05T02:56:23.004Z,12.46
2023-03-05T02:56:44.649Z,12.44
2023-03-05T02:57:06.347Z,12.45
2023-03-05T02:57:27.958Z,12.44
2023-03-05T02:57:51.286Z,12.40
2023-03-05T02:58:12.951Z,12.41
2023-03-05T02:58:34.582Z,12.43
2023-03-05T02:58:56.274Z,12.46
2023-03-05T02:59:18.924Z,12.45
2023-03-05T02:59:40.710Z,12.47
2023-03-05T03:00:03.130Z,12.47
2023-03-05T03:00:25.008Z,12.46
2023-03-05T03:00:46.652Z,12.46
2023-03-05T03:01:09.722Z,12.48
2023-03-05T03:01:31.407Z,12.49
2023-03-05T03:01:53.104Z,12.50
2023-03-05T03:02:14.863Z,12.49
2023-03-05T03:02:37.444Z,12.49
2023-03-05T03:02:59.682Z,12.48
2023-03-05T03:03:22.240Z,12.44
2023-03-05T03:03:43.878Z,12.51
2023-03-05T03:04:06.697Z,12.52
2023-03-05T03:04:28.273Z,12.51
2023-03-05T03:04:49.869Z,12.50
2023-03-05T03:05:11.454Z,12.48
2023-03-05T03:05:33.046Z,12.49
2023-03-05T03:05:55.565Z,12.42
2023-03-05T03:06:17.229Z,12.47
2023-03-05T03:06:40.136Z,12.44
2023-03-05T03:07:01.821Z,12.46
2023-03-05T03:07:24.360Z,12.43
2023-03-05T03:07:46.155Z,12.45
2023-03-05T03:08:07.865Z,12.43
2023-03-05T03:08:29.648Z,12.43
2023-03-05T03:08:52.288Z,12.45
2023-03-05T03:09:13.921Z,12.47
2023-03-05T03:09:35.896Z,12.46
2023-03-05T03:09:57.476Z,12.40
2023-03-05T03:10:19.066Z,12.40
2023-03-05T03:10:41.997Z,12.40
2023-03-05T03:11:05.676Z,12.37
2023-03-05T03:11:27.404Z,12.36
2023-03-05T03:11:48.992Z,12.38
2023-03-05T03:12:12.611Z,12.38
2023-03-05T03:12:37.161Z,12.41
2023-03-05T03:12:58.736Z,12.40
2023-03-05T03:13:20.287Z,12.37
2023-03-05T03:13:44.129Z,12.39
2023-03-05T03:14:05.666Z,12.38
2023-03-05T03:14:27.330Z,12.37
2023-03-05T03:14:48.993Z,12.41
2023-03-05T03:15:12.785Z,12.39
2023-03-05T03:15:35.345Z,12.41
2023-03-05T03:16:02.413Z,12.42
2023-03-05T03:16:24.028Z,12.40
2023-03-05T03:16:46.628Z,12.45
2023-03-05T03:17:09.447Z,12.37
2023-03-05T03:17:31.131Z,12.42
2023-03-05T03:17:52.745Z,12.42
2023-03-05T03:18:15.365Z,12.39
2023-03-05T03:18:37.050Z,12.40
2023-03-05T03:18:58.664Z,12.40
2023-03-05T03:19:20.402Z,12.39
2023-03-05T03:19:44.161Z,12.40
2023-03-05T03:20:08.205Z,12.42
2023-03-05T03:20:29.840Z,12.41
2023-03-05T03:20:51.429Z,12.42
2023-03-05T03:21:19.145Z,12.42
2023-03-05T03:21:42.107Z,12.40
2023-03-05T03:22:04.378Z,12.41
2023-03-05T03:22:26.046Z,12.44
2023-03-05T03:22:49.014Z,12.44
2023-03-05T03:23:10.598Z,12.44
2023-03-05T03:23:32.901Z,12.44
2023-03-05T03:23:54.492Z,12.46
2023-03-05T03:24:17.227Z,12.44
2023-03-05T03:24:39.975Z,12.43
2023-03-05T03:25:02.287Z,12.43
2023-03-05T03:25:24.066Z,12.45
2023-03-05T03:25:47.218Z,12.43
2023-03-05T03:26:09.849Z,12.31
2023-03-05T03:26:31.884Z,12.41
2023-03-05T03:26:53.437Z,12.34
2023-03-05T03:27:15.088Z,12.41
2023-03-05T03:27:36.743Z,12.40
2023-03-05T03:27:59.466Z,12.34
2023-03-05T03:28:21.037Z,12.40
2023-03-05T03:28:43.059Z,12.41
2023-03-05T03:29:04.665Z,12.43
2023-03-05T03:29:27.417Z,12.42
2023-03-05T03:29:49.138Z,12.40
2023-03-05T03:30:11.976Z,12.41
2023-03-05T03:30:33.609Z,12.41
2023-03-05T03:30:56.238Z,12.39
2023-03-05T03:31:17.929Z,12.38
2023-03-05T03:31:41.246Z,12.37
2023-03-05T03:32:04.630Z,12.38
2023-03-05T03:32:26.389Z,12.39
2023-03-05T03:32:48.043Z,12.39
2023-03-05T03:33:10.013Z,12.37
2023-03-05T03:33:32.001Z,12.36
2023-03-05T03:33:54.983Z,12.36
2023-03-05T03:34:17.528Z,12.39
2023-03-05T03:34:39.220Z,12.41
2023-03-05T03:35:01.547Z,12.42
2023-03-05T03:35:24.130Z,12.41
2023-03-05T03:35:46.102Z,12.38
2023-03-05T03:36:08.641Z,12.43
2023-03-05T03:36:30.492Z,12.48
2023-03-05T03:36:54.784Z,12.33
2023-03-05T03:37:16.596Z,12.45
2023-03-05T03:37:38.514Z,12.43
2023-03-05T03:38:00.092Z,12.46
2023-03-05T03:38:22.715Z,12.46
2023-03-05T03:38:44.316Z,12.49
2023-03-05T03:39:05.967Z,12.47
2023-03-05T03:39:27.625Z,12.49
2023-03-05T03:39:49.430Z,12.46
2023-03-05T03:40:12.957Z,12.45
2023-03-05T03:40:35.784Z,12.47
2023-03-05T03:40:57.372Z,12.39
2023-03-05T03:41:19.383Z,12.46
2023-03-05T03:41:43.597Z,12.45
2023-03-05T03:42:05.502Z,12.44
2023-03-05T03:42:27.226Z,12.47
2023-03-05T03:42:50.897Z,12.46
2023-03-05T03:43:13.490Z,12.45
2023-03-05T03:43:35.457Z,12.44
2023-03-05T03:43:56.986Z,12.46
2023-03-05T03:44:20.641Z,12.44
2023-03-05T03:44:43.210Z,12.44
2023-03-05T03:45:05.847Z,12.48
2023-03-05T03:45:27.564Z,12.46
2023-03-05T03:45:49.171Z,12.45
2023-03-05T03:46:11.885Z,12.37
2023-03-05T03:46:33.532Z,12.46
2023-03-05T03:46:55.174Z,12.44
2023-03-05T03:47:17.207Z,12.45
2023-03-05T03:47:38.780Z,12.47
2023-03-05T03:48:01.327Z,12.47
2023-03-05T03:48:23.003Z,12.45
2023-03-05T03:48:44.638Z,12.44
2023-03-05T03:49:08.213Z,12.28
2023-03-05T03:49:30.781Z,12.45
2023-03-05T03:49:54.054Z,12.47
2023-03-05T03:50:15.769Z,12.46
2023-03-05T03:50:38.838Z,12.46
2023-03-05T03:51:04.732Z,12.45
2023-03-05T03:51:27.447Z,12.47
2023-03-05T03:51:50.385Z,12.46
2023-03-05T03:52:13.341Z,12.47
2023-03-05T03:52:34.979Z,12.48
2023-03-05T03:52:56.646Z,12.46
2023-03-05T03:53:19.275Z,12.49
2023-03-05T03:53:40.898Z,12.50
2023-03-05T03:54:02.832Z,12.52
2023-03-05T03:54:24.778Z,12.54
2023-03-05T03:54:47.356Z,12.53
2023-03-05T03:55:10.344Z,12.51
2023-03-05T03:55:31.961Z,12.52
2023-03-05T03:55:59.196Z,12.52
2023-03-05T03:56:20.798Z,12.49
2023-03-05T03:56:42.819Z,12.49
2023-03-05T03:57:04.659Z,12.46
2023-03-05T03:57:26.316Z,12.46
2023-03-05T03:57:48.874Z,12.47
2023-03-05T03:58:10.706Z,12.46
2023-03-05T03:58:32.453Z,12.47
2023-03-05T03:58:54.548Z,12.46
2023-03-05T03:59:17.244Z,12.46
2023-03-05T03:59:38.828Z,12.45
2023-03-05T04:00:01.015Z,12.45
2023-03-05T04:00:23.045Z,12.43
2023-03-05T04:00:44.614Z,12.44
2023-03-05T04:01:06.239Z,12.43
2023-03-05T04:01:28.790Z,12.44
2023-03-05T04:01:50.590Z,12.42
2023-03-05T04:02:12.220Z,12.43
2023-03-05T04:02:33.898Z,12.45
2023-03-05T04:02:56.491Z,12.45
2023-03-05T04:03:18.146Z,12.44
2023-03-05T04:03:39.703Z,12.46
2023-03-05T04:04:01.534Z,12.48
2023-03-05T04:04:23.397Z,12.45
2023-03-05T04:04:46.025Z,12.44
2023-03-05T04:05:08.836Z,12.47
2023-03-05T04:05:30.680Z,12.47
2023-03-05T04:05:52.316Z,12.47
2023-03-05T04:06:15.231Z,12.47
2023-03-05T04:06:36.840Z,12.46
2023-03-05T04:06:59.314Z,12.43
2023-03-05T04:07:22.303Z,12.46
2023-03-05T04:07:45.315Z,12.45
2023-03-05T04:08:11.904Z,12.46
2023-03-05T04:08:33.482Z,12.44
2023-03-05T04:08:56.113Z,12.48
2023-03-05T04:09:17.785Z,12.49
2023-03-05T04:09:39.421Z,12.49
2023-03-05T04:10:00.965Z,12.46
2023-03-05T04:10:23.554Z,12.32
2023-03-05T04:10:45.373Z,12.44
2023-03-05T04:11:07.060Z,12.46
2023-03-05T04:11:28.655Z,12.46
2023-03-05T04:11:50.241Z,12.35
2023-03-05T04:12:17.866Z,12.46
2023-03-05T04:12:39.571Z,12.44
2023-03-05T04:13:01.199Z,12.46
2023-03-05T04:13:24.867Z,12.46
2023-03-05T04:13:47.539Z,12.47
2023-03-05T04:14:09.214Z,12.46
2023-03-05T04:14:30.800Z,12.44
2023-03-05T04:14:52.898Z,12.46
2023-03-05T04:15:15.512Z,12.48
2023-03-05T04:15:37.150Z,12.48
2023-03-05T04:15:59.013Z,12.46
2023-03-05T04:16:20.741Z,12.47
2023-03-05T04:16:42.440Z,12.47
2023-03-05T04:17:05.070Z,12.47
2023-03-05T04:17:26.723Z,12.44
2023-03-05T04:17:48.356Z,12.43
2023-03-05T04:18:11.106Z,12.42
2023-03-05T04:18:34.011Z,12.42
2023-03-05T04:18:55.709Z,12.35
2023-03-05T04:19:17.490Z,12.41
2023-03-05T04:19:39.491Z,12.42
2023-03-05T04:20:02.390Z,12.43
2023-03-05T04:20:24.130Z,12.44
2023-03-05T04:20:45.740Z,12.45
2023-03-05T04:21:07.383Z,12.45
2023-03-05T04:21:30.426Z,12.48
2023-03-05T04:21:52.060Z,12.50
2023-03-05T04:22:15.141Z,12.48
2023-03-05T04:22:38.231Z,12.48
2023-03-05T04:23:00.804Z,12.48
2023-03-05T04:23:22.418Z,12.48
2023-03-05T04:23:44.109Z,12.49
2023-03-05T04:24:08.249Z,12.50
2023-03-05T04:24:29.884Z,12.49
2023-03-05T04:24:52.471Z,12.49
2023-03-05T04:25:14.184Z,12.47
2023-03-05T04:25:35.797Z,12.48
2023-03-05T04:25:57.402Z,12.50
2023-03-05T04:26:20.006Z,12.50
2023-03-05T04:26:41.997Z,12.51
2023-03-05T04:27:03.778Z,12.46
2023-03-05T04:27:25.401Z,12.48
2023-03-05T04:27:47.028Z,12.49
2023-03-05T04:28:09.625Z,12.49
2023-03-05T04:28:31.527Z,12.48
2023-03-05T04:28:53.148Z,12.50
2023-03-05T04:29:14.751Z,12.49
2023-03-05T04:29:37.419Z,12.43
2023-03-05T04:29:59.036Z,12.49
2023-03-05T04:30:20.885Z,12.53
2023-03-05T04:30:42.445Z,12.53
2023-03-05T04:31:05.702Z,12.51
2023-03-05T04:31:27.491Z,12.52
2023-03-05T04:31:49.054Z,12.54
2023-03-05T04:32:10.714Z,12.49
2023-03-05T04:32:33.437Z,12.50
2023-03-05T04:32:55.108Z,12.50
2023-03-05T04:33:16.756Z,12.49
2023-03-05T04:33:38.371Z,12.48
2023-03-05T04:34:01.191Z,12.46
2023-03-05T04:34:22.808Z,12.49
2023-03-05T04:34:44.429Z,12.47
2023-03-05T04:35:06.369Z,12.46
2023-03-05T04:35:29.100Z,12.46
2023-03-05T04:35:51.359Z,12.47
2023-03-05T04:36:13.061Z,12.46
2023-03-05T04:36:34.768Z,12.45
2023-03-05T04:36:57.354Z,12.45
2023-03-05T04:37:18.956Z,12.44
2023-03-05T04:37:41.960Z,12.46
2023-03-05T04:38:05.077Z,12.43
2023-03-05T04:38:26.854Z,12.46
2023-03-05T04:38:48.506Z,12.45
2023-03-05T04:39:10.115Z,12.44
2023-03-05T04:39:32.934Z,12.44
2023-03-05T04:39:54.717Z,12.41
2023-03-05T04:40:16.628Z,12.46
2023-03-05T04:40:38.669Z,12.47
2023-03-05T04:41:01.239Z,12.45
2023-03-05T04:41:22.817Z,12.44
2023-03-05T04:41:44.432Z,12.41
2023-03-05T04:42:06.915Z,12.32
2023-03-05T04:42:29.462Z,12.39
2023-03-05T04:42:51.083Z,12.41
2023-03-05T04:43:12.846Z,12.42
2023-03-05T04:43:34.453Z,12.41
2023-03-05T04:43:57.079Z,12.40
2023-03-05T04:44:19.150Z,12.40
2023-03-05T04:44:40.777Z,12.42
2023-03-05T04:45:02.617Z,12.39
2023-03-05T04:45:25.209Z,12.40
2023-03-05T04:45:46.861Z,12.38
2023-03-05T04:46:08.477Z,12.39
2023-03-05T04:46:30.272Z,12.29
2023-03-05T04:46:52.952Z,12.40
2023-03-05T04:47:14.870Z,12.38
2023-03-05T04:47:37.194Z,12.37
2023-03-05T04:47:59.027Z,12.37
2023-03-05T04:48:21.645Z,12.39
2023-03-05T04:48:43.261Z,12.39
2023-03-05T04:49:04.836Z,12.38
2023-03-05T04:49:26.491Z,12.39
2023-03-05T04:49:49.089Z,12.37
2023-03-05T04:50:11.649Z,12.40
2023-03-05T04:50:33.322Z,12.38
2023-03-05T04:50:54.972Z,12.40
2023-03-05T04:51:16.578Z,12.37
2023-03-05T04:51:39.141Z,12.36
2023-03-05T04:52:00.807Z,12.35
2023-03-05T04:52:22.658Z,12.36
2023-03-05T04:52:45.893Z,12.38